Estación Meteorológica Peña el Pijo (Robertgarden) [ 07/19/24 12:43:12 CEST ]

Fecha Hora Presion(HPa) Temp (°C) Humedad % Rocio (°C) Viento ( m/s) Direccion Lluvia 1Hora(mm) Lluvia 24H(mm) LLuvia Total(mm)
2008-Apr-05 01:05:18 1019.900 4.3 73 -0.1         44.52
2008-Apr-05 02:05:13 1019.400 3.0 76 -0.8         44.52
2008-Apr-05 03:05:17 1019.100 1.9 80 -1.2         44.52
2008-Apr-05 04:05:14 1018.900 0.8 83 -1.8         44.52
2008-Apr-05 05:05:18 1018.100 0.5 85 -1.8         44.52
2008-Apr-05 06:05:23 1017.800 0.2 87 -1.7         44.52
2008-Apr-05 07:05:26 1017.700 -0.6 87 -2.5         44.52
2008-Apr-05 08:05:16 1017.500 0.3 89 -1.3 0.6 ESE     44.52
2008-Apr-05 09:05:16 1017.200 10.0 66 3.9         44.52
2008-Apr-05 10:05:16 1016.700 18.0 41 4.5         44.52
2008-Apr-05 11:05:14 1016.500 21.9 31 4.0         44.52
2008-Apr-05 12:05:18 1016.000 24.6 25 3.1 0.1 NNE     44.52
2008-Apr-05 13:05:16 1015.500 26.9 17 -0.7 0.5 ESE     44.52
2008-Apr-05 14:05:18 1015.000 26.1 18 -0.5 1.8 NNW     44.52
2008-Apr-05 15:05:22 1014.200 24.4 18 -1.8 1.5 NE     44.52
2008-Apr-05 16:05:19 1013.800 25.1 17 -2.2 3.6 NE     44.52
2008-Apr-05 17:05:16 1013.200 27.3 15 -2.3 1.1 NNE     44.52
2008-Apr-05 18:05:23 1012.700 28.9 11 -4.8         44.52
2008-Apr-05 19:05:21 1012.800 29.3 11 -4.5         44.52
2008-Apr-05 20:05:19 1012.800 17.8 18 -7.2         44.52
2008-Apr-05 21:05:24 1013.100 13.1 27 -5.7         44.52
2008-Apr-05 22:05:13 1013.400 8.9 38 -4.7         44.52
2008-Apr-05 23:05:19 1013.700 7.2 44 -4.3         44.52

Temperatura Máxima:29°    Temperatura Mínima:
Presión Máxima:1019.900 Hpa    Presión Mínima:1012.700 Hpa


Volver